Flight Track Log - Related Links

Times and Time Zones

All times are in EDT time to prevent confusion due to time zone crossing. See the EJA929 flight status page for this flight to view local times or setup timezone preferences in your user account.

Time Position Orientation Groundspeed Altitude Reporting Facility
EDT Latitude Longitude Course Direction KTS MPH feet Rate Location/Type
Fri 01:59:15 PM 32.7958 -80.1150 211° Southwest 241 277 28,000  Level Jacksonville Center
Fri 02:00:15 PM 32.7383 -80.1586 213° Southwest 241 277 10,000 -9,000 Descending Jacksonville Center
Fri 02:01:15 PM 32.6603 -80.2253 216° Southwest 275 316 10,000 750 Level Jacksonville Center
Fri 02:02:15 PM 32.5719 -80.2944 213° Southwest 336 387 11,500 1,550 Climbing Jacksonville Center
Fri 02:03:00 PM 32.4474 -80.3636 211° Southwest  Level FlightAware Approximate
Fri 02:03:15 PM 32.4836 -80.3583 211° Southwest 365 420 13,100  Level Jacksonville Center
Fri 02:04:00 PM 32.3411 -80.4388 211° Southwest  Level FlightAware Approximate
Fri 02:04:15 PM 32.4039 -80.4442 222° Southwest 381 438 14,700  Level Jacksonville Center
Fri 02:05:15 PM 32.3261 -80.5350 225° Southwest 387 445 16,300 1,600 Climbing Jacksonville Center
Fri 02:06:15 PM 32.2486 -80.6228 224° Southwest 387 445 17,900 1,500 Climbing Jacksonville Center
Fri 02:07:15 PM 32.1686 -80.7131 224° Southwest 398 458 19,300 1,650 Climbing Jacksonville Center
Fri 02:08:15 PM 32.0908 -80.8058 225° Southwest 398 458 21,200 2,000 Climbing Jacksonville Center
Fri 02:09:15 PM 32.0089 -80.8958 223° Southwest 398 458 23,300 2,150 Climbing Jacksonville Center
Fri 02:10:15 PM 31.9350 -80.9758 223° Southwest 398 458 25,500 2,150 Climbing Jacksonville Center
Fri 02:11:15 PM 31.8467 -81.0756 224° Southwest 398 458 27,600 1,250 Climbing Jacksonville Center
Fri 02:12:15 PM 31.7622 -81.1725 224° Southwest 421 484 28,000 200 Climbing Jacksonville Center
Fri 02:13:15 PM 31.6758 -81.2667 223° Southwest 446 513 28,000  Level Jacksonville Center
Fri 02:14:15 PM 31.5689 -81.3856 223° Southwest 481 554 28,000  Level Jacksonville Center
Fri 02:15:15 PM 31.4761 -81.4894 224° Southwest 495 570 28,000  Level Jacksonville Center
Fri 02:16:15 PM 31.3667 -81.6103 223° Southwest 500 575 28,000  Level Jacksonville Center
Fri 02:17:15 PM 31.2819 -81.7111 226° Southwest 500 575 28,000  Level Jacksonville Center
Fri 02:18:15 PM 31.1889 -81.8142 223° Southwest 485 558 28,000  Level Jacksonville Center
Fri 02:19:15 PM 31.0917 -81.9100 220° Southwest 472 543 28,000  Level Jacksonville Center
Fri 02:20:15 PM 30.9750 -81.9547 198° South 454 522 28,000  Level Jacksonville Center
Fri 02:21:15 PM 30.8522 -81.9925 195° South 451 519 28,000  Level Jacksonville Center
Fri 02:22:15 PM 30.7272 -82.0297 194° South 456 525 28,000  Level Jacksonville Center
Fri 02:23:15 PM 30.5978 -82.0672 194° South 467 537 28,000  Level Jacksonville Center
Fri 02:24:15 PM 30.4625 -82.1022 193° South 481 554 28,000  Level Jacksonville Center
Fri 02:25:15 PM 30.3247 -82.1417 194° South 500 575 28,000 -496 Level Jacksonville Center
Fri 02:26:16 PM 30.1894 -82.1811 194° South 507 583 27,000 -500 Descending Jacksonville Center
Fri 02:27:15 PM 30.0539 -82.2206 194° South 507 583 27,000  Level Jacksonville Center
Fri 02:28:15 PM 29.9183 -82.2647 196° South 507 583 27,000 -650 Level Jacksonville Center
Fri 02:29:15 PM 29.7850 -82.3039 194° South 507 583 25,700 -1,500 Descending Jacksonville Center
Fri 02:30:15 PM 29.6494 -82.3406 193° South 507 583 24,000 -1,300 Descending Jacksonville Center
Fri 02:31:15 PM 29.5158 -82.3508 184° South 496 571 23,100 -1,250 Descending Jacksonville Center
Fri 02:32:15 PM 29.3822 -82.3350 174° South 488 562 21,500 -1,050 Descending Jacksonville Center
Fri 02:33:15 PM 29.2528 -82.3189 174° South 482 555 21,000 -250 Descending Jacksonville Center
Fri 02:34:15 PM 29.1106 -82.3031 174° South 477 549 21,000 -50 Level Jacksonville Center
Fri 02:35:15 PM 28.9833 -82.2872 174° South 472 543 20,900 -1,550 Descending Jacksonville Center
Fri 02:36:15 PM 28.8747 -82.2761 175° South 457 526 17,900 -2,513 Descending Jacksonville Center
Fri 02:38:26 PM 28.6333 -82.2500 175° South 335 386 12,900 -2,105 Descending Tampa TRACON
Fri 02:39:26 PM 28.5500 -82.2500 180° South 305 351 11,200 -1,700 Descending Tampa TRACON
Fri 02:40:26 PM 28.4667 -82.2500 180° South 295 339 9,500 -1,722 Descending Tampa TRACON
Fri 02:41:21 PM 28.4000 -82.2500 180° South 286 329 7,900 -1,316 Descending Tampa TRACON
Fri 02:42:20 PM 28.3333 -82.2833 204° Southwest 270 311 7,000 -1,200 Descending Tampa TRACON
Fri 02:43:26 PM 28.3000 -82.3667 246° West 272 313 5,400 -1,619 Descending Tampa TRACON
Fri 02:44:26 PM 28.2500 -82.4333 230° Southwest 275 316 3,600 -1,143 Descending Tampa TRACON
Fri 02:45:32 PM 28.1833 -82.4833 213° Southwest 264 304 3,000 -472 Descending Tampa TRACON
Fri 02:46:33 PM 28.1333 -82.5167 210° Southwest 242 278 2,600 -730 Descending Tampa TRACON
Fri 02:47:27 PM 28.0667 -82.5333 192° South 236 272 1,600 -1,053 Descending Tampa TRACON
Fri 02:48:27 PM 28.0167 -82.5333 180° South 163 188 600 -1,000 Descending Tampa TRACON

Login

Don't have an account? Register now (free) for customized features, flight alerts, and more!